sensor_id;sensor_type;location;lat;lon;timestamp;temperature;humidity
16479;DHT22;8350;52.316;10.530;2022-08-11T00:00:32;16.00;99.90
16479;DHT22;8350;52.316;10.530;2022-08-11T00:03:04;15.90;99.90
16479;DHT22;8350;52.316;10.530;2022-08-11T00:05:44;15.80;99.90
16479;DHT22;8350;52.316;10.530;2022-08-11T00:08:21;15.70;99.90
16479;DHT22;8350;52.316;10.530;2022-08-11T00:10:52;15.60;99.90
16479;DHT22;8350;52.316;10.530;2022-08-11T00:13:21;15.60;99.90
16479;DHT22;8350;52.316;10.530;2022-08-11T00:15:50;15.60;99.90
16479;DHT22;8350;52.316;10.530;2022-08-11T00:18:18;15.80;99.90
16479;DHT22;8350;52.316;10.530;2022-08-11T00:20:46;15.80;99.90
16479;DHT22;8350;52.316;10.530;2022-08-11T00:23:15;15.90;99.90
16479;DHT22;8350;52.316;10.530;2022-08-11T00:25:45;16.00;99.90
16479;DHT22;8350;52.316;10.530;2022-08-11T00:28:26;16.00;99.90
16479;DHT22;8350;52.316;10.530;2022-08-11T00:31:03;15.80;99.90
16479;DHT22;8350;52.316;10.530;2022-08-11T00:33:33;15.80;99.90
16479;DHT22;8350;52.316;10.530;2022-08-11T00:36:02;15.80;99.90
16479;DHT22;8350;52.316;10.530;2022-08-11T00:38:33;15.80;99.90
16479;DHT22;8350;52.316;10.530;2022-08-11T00:41:10;15.80;99.90
16479;DHT22;8350;52.316;10.530;2022-08-11T00:43:49;15.80;99.90
16479;DHT22;8350;52.316;10.530;2022-08-11T00:46:30;15.70;99.90
16479;DHT22;8350;52.316;10.530;2022-08-11T00:49:08;15.50;99.90
16479;DHT22;8350;52.316;10.530;2022-08-11T00:51:46;15.50;99.90
16479;DHT22;8350;52.316;10.530;2022-08-11T00:54:46;15.40;99.90
16479;DHT22;8350;52.316;10.530;2022-08-11T01:00:21;15.60;99.90
16479;DHT22;8350;52.316;10.530;2022-08-11T01:03:24;15.50;99.90
16479;DHT22;8350;52.316;10.530;2022-08-11T01:06:05;15.40;99.90
16479;DHT22;8350;52.316;10.530;2022-08-11T01:09:11;15.30;99.90
16479;DHT22;8350;52.316;10.530;2022-08-11T01:12:02;15.20;99.90
16479;DHT22;8350;52.316;10.530;2022-08-11T01:18:15;15.10;99.90
16479;DHT22;8350;52.316;10.530;2022-08-11T01:21:13;15.10;99.90
16479;DHT22;8350;52.316;10.530;2022-08-11T01:24:16;15.10;99.90
16479;DHT22;8350;52.316;10.530;2022-08-11T01:30:13;15.20;99.90
16479;DHT22;8350;52.316;10.530;2022-08-11T01:33:19;15.30;99.90
16479;DHT22;8350;52.316;10.530;2022-08-11T01:36:37;15.40;99.90
16479;DHT22;8350;52.316;10.530;2022-08-11T01:39:32;15.30;99.90
16479;DHT22;8350;52.316;10.530;2022-08-11T01:42:34;15.20;99.90
16479;DHT22;8350;52.316;10.530;2022-08-11T01:45:29;15.20;99.90
16479;DHT22;8350;52.316;10.530;2022-08-11T01:48:02;15.20;99.90
16479;DHT22;8350;52.316;10.530;2022-08-11T01:50:45;15.20;99.90
16479;DHT22;8350;52.316;10.530;2022-08-11T01:53:27;15.20;99.90
16479;DHT22;8350;52.316;10.530;2022-08-11T01:56:09;15.20;99.90
16479;DHT22;8350;52.316;10.530;2022-08-11T01:58:42;15.20;99.90
16479;DHT22;8350;52.316;10.530;2022-08-11T02:01:31;15.20;99.90
16479;DHT22;8350;52.316;10.530;2022-08-11T02:04:13;15.10;99.90
16479;DHT22;8350;52.316;10.530;2022-08-11T02:06:49;15.00;99.90
16479;DHT22;8350;52.316;10.530;2022-08-11T02:09:37;14.90;99.90
16479;DHT22;8350;52.316;10.530;2022-08-11T02:12:14;14.90;99.90
16479;DHT22;8350;52.316;10.530;2022-08-11T02:14:45;14.80;99.90
16479;DHT22;8350;52.316;10.530;2022-08-11T02:17:18;14.70;99.90
16479;DHT22;8350;52.316;10.530;2022-08-11T02:19:53;14.60;99.90
16479;DHT22;8350;52.316;10.530;2022-08-11T02:22:45;14.50;99.90
16479;DHT22;8350;52.316;10.530;2022-08-11T02:25:37;14.40;99.90
16479;DHT22;8350;52.316;10.530;2022-08-11T02:28:09;14.30;99.90
16479;DHT22;8350;52.316;10.530;2022-08-11T02:30:47;14.20;99.90
16479;DHT22;8350;52.316;10.530;2022-08-11T02:33:41;14.10;99.90
16479;DHT22;8350;52.316;10.530;2022-08-11T02:36:14;14.20;99.90
16479;DHT22;8350;52.316;10.530;2022-08-11T02:38:50;14.30;99.90
16479;DHT22;8350;52.316;10.530;2022-08-11T02:41:25;14.30;99.90
16479;DHT22;8350;52.316;10.530;2022-08-11T02:44:31;14.30;99.90
16479;DHT22;8350;52.316;10.530;2022-08-11T02:47:08;14.20;99.90
16479;DHT22;8350;52.316;10.530;2022-08-11T02:49:47;14.30;99.90
16479;DHT22;8350;52.316;10.530;2022-08-11T02:52:30;14.40;99.90
16479;DHT22;8350;52.316;10.530;2022-08-11T02:57:55;14.30;99.90
16479;DHT22;8350;52.316;10.530;2022-08-11T03:00:26;14.20;99.90
16479;DHT22;8350;52.316;10.530;2022-08-11T03:03:11;14.10;99.90
16479;DHT22;8350;52.316;10.530;2022-08-11T03:05:51;14.10;99.90
16479;DHT22;8350;52.316;10.530;2022-08-11T03:08:28;14.00;99.90
16479;DHT22;8350;52.316;10.530;2022-08-11T03:11:02;14.00;99.90
16479;DHT22;8350;52.316;10.530;2022-08-11T03:14:01;14.00;99.90
16479;DHT22;8350;52.316;10.530;2022-08-11T03:16:53;14.00;99.90
16479;DHT22;8350;52.316;10.530;2022-08-11T03:19:27;14.00;99.90
16479;DHT22;8350;52.316;10.530;2022-08-11T03:22:18;14.10;99.90
16479;DHT22;8350;52.316;10.530;2022-08-11T03:24:57;14.20;99.90
16479;DHT22;8350;52.316;10.530;2022-08-11T03:27:42;14.30;99.90
16479;DHT22;8350;52.316;10.530;2022-08-11T03:30:16;14.30;99.90
16479;DHT22;8350;52.316;10.530;2022-08-11T03:32:53;14.30;99.90
16479;DHT22;8350;52.316;10.530;2022-08-11T03:35:42;14.20;99.90
16479;DHT22;8350;52.316;10.530;2022-08-11T03:38:14;14.10;99.90
16479;DHT22;8350;52.316;10.530;2022-08-11T03:41:03;14.00;99.90
16479;DHT22;8350;52.316;10.530;2022-08-11T03:43:54;13.90;99.90
16479;DHT22;8350;52.316;10.530;2022-08-11T03:46:37;13.80;99.90
16479;DHT22;8350;52.316;10.530;2022-08-11T03:49:26;13.80;99.90
16479;DHT22;8350;52.316;10.530;2022-08-11T03:52:07;13.70;99.90
16479;DHT22;8350;52.316;10.530;2022-08-11T03:54:49;13.70;99.90
16479;DHT22;8350;52.316;10.530;2022-08-11T04:03:51;13.70;99.90
16479;DHT22;8350;52.316;10.530;2022-08-11T04:06:53;13.60;99.90
16479;DHT22;8350;52.316;10.530;2022-08-11T04:09:46;13.50;99.90
16479;DHT22;8350;52.316;10.530;2022-08-11T04:12:56;13.60;99.90
16479;DHT22;8350;52.316;10.530;2022-08-11T04:15:49;13.70;99.90
16479;DHT22;8350;52.316;10.530;2022-08-11T04:22:16;13.60;99.90
16479;DHT22;8350;52.316;10.530;2022-08-11T04:25:09;13.50;99.90
16479;DHT22;8350;52.316;10.530;2022-08-11T04:27:58;13.60;99.90
16479;DHT22;8350;52.316;10.530;2022-08-11T04:30:49;13.70;99.90
16479;DHT22;8350;52.316;10.530;2022-08-11T04:33:58;13.80;99.90
16479;DHT22;8350;52.316;10.530;2022-08-11T04:36:40;13.80;99.90
16479;DHT22;8350;52.316;10.530;2022-08-11T04:39:46;13.80;99.90
16479;DHT22;8350;52.316;10.530;2022-08-11T04:45:56;14.10;99.90
16479;DHT22;8350;52.316;10.530;2022-08-11T04:52:05;14.30;99.90
16479;DHT22;8350;52.316;10.530;2022-08-11T04:55:23;14.40;99.90
16479;DHT22;8350;52.316;10.530;2022-08-11T04:58:18;14.50;99.90
16479;DHT22;8350;52.316;10.530;2022-08-11T05:01:17;14.50;99.90
16479;DHT22;8350;52.316;10.530;2022-08-11T05:04:15;14.60;99.90
16479;DHT22;8350;52.316;10.530;2022-08-11T05:07:21;14.80;99.90
16479;DHT22;8350;52.316;10.530;2022-08-11T05:10:07;14.90;99.90
16479;DHT22;8350;52.316;10.530;2022-08-11T05:12:42;15.10;99.90
16479;DHT22;8350;52.316;10.530;2022-08-11T05:15:12;15.30;99.90
16479;DHT22;8350;52.316;10.530;2022-08-11T05:18:15;15.70;99.90
16479;DHT22;8350;52.316;10.530;2022-08-11T05:21:05;17.10;99.90
16479;DHT22;8350;52.316;10.530;2022-08-11T05:23:56;19.10;99.90
16479;DHT22;8350;52.316;10.530;2022-08-11T05:26:47;20.90;99.90
16479;DHT22;8350;52.316;10.530;2022-08-11T05:29:41;22.40;99.90
16479;DHT22;8350;52.316;10.530;2022-08-11T05:32:31;23.50;99.90
16479;DHT22;8350;52.316;10.530;2022-08-11T05:35:25;24.40;99.90
16479;DHT22;8350;52.316;10.530;2022-08-11T05:37:54;25.10;99.90
16479;DHT22;8350;52.316;10.530;2022-08-11T05:40:47;25.30;99.90
16479;DHT22;8350;52.316;10.530;2022-08-11T05:43:39;25.60;99.90
16479;DHT22;8350;52.316;10.530;2022-08-11T05:46:26;25.70;99.90
16479;DHT22;8350;52.316;10.530;2022-08-11T05:49:12;25.80;99.90
16479;DHT22;8350;52.316;10.530;2022-08-11T05:51:58;25.80;99.90
16479;DHT22;8350;52.316;10.530;2022-08-11T05:54:43;26.00;99.90
16479;DHT22;8350;52.316;10.530;2022-08-11T05:57:30;26.00;99.90
16479;DHT22;8350;52.316;10.530;2022-08-11T06:00:04;26.00;99.90
16479;DHT22;8350;52.316;10.530;2022-08-11T06:02:40;25.50;99.90
16479;DHT22;8350;52.316;10.530;2022-08-11T06:05:10;25.10;99.90
16479;DHT22;8350;52.316;10.530;2022-08-11T06:07:38;24.80;99.90
16479;DHT22;8350;52.316;10.530;2022-08-11T06:10:06;24.60;99.90
16479;DHT22;8350;52.316;10.530;2022-08-11T06:12:34;24.90;99.90
16479;DHT22;8350;52.316;10.530;2022-08-11T06:15:10;25.00;99.90
16479;DHT22;8350;52.316;10.530;2022-08-11T06:17:44;25.00;99.90
16479;DHT22;8350;52.316;10.530;2022-08-11T06:20:13;24.70;99.90
16479;DHT22;8350;52.316;10.530;2022-08-11T06:22:43;24.50;99.90
16479;DHT22;8350;52.316;10.530;2022-08-11T06:25:11;24.20;99.90
16479;DHT22;8350;52.316;10.530;2022-08-11T06:27:39;23.80;99.90
16479;DHT22;8350;52.316;10.530;2022-08-11T06:30:10;23.60;99.90
16479;DHT22;8350;52.316;10.530;2022-08-11T06:32:41;23.40;99.90
16479;DHT22;8350;52.316;10.530;2022-08-11T06:35:18;23.50;99.90
16479;DHT22;8350;52.316;10.530;2022-08-11T06:38:01;23.40;99.90
16479;DHT22;8350;52.316;10.530;2022-08-11T06:40:37;23.30;99.90
16479;DHT22;8350;52.316;10.530;2022-08-11T06:43:16;23.30;99.90
16479;DHT22;8350;52.316;10.530;2022-08-11T06:45:52;23.30;99.90
16479;DHT22;8350;52.316;10.530;2022-08-11T06:48:25;23.30;99.90
16479;DHT22;8350;52.316;10.530;2022-08-11T06:51:02;23.30;99.90
16479;DHT22;8350;52.316;10.530;2022-08-11T06:53:41;23.10;99.90
16479;DHT22;8350;52.316;10.530;2022-08-11T06:56:10;23.00;99.90
16479;DHT22;8350;52.316;10.530;2022-08-11T06:58:56;22.90;99.90
16479;DHT22;8350;52.316;10.530;2022-08-11T07:01:54;22.90;99.90
16479;DHT22;8350;52.316;10.530;2022-08-11T07:04:29;22.90;99.90
16479;DHT22;8350;52.316;10.530;2022-08-11T07:07:19;22.90;99.90
16479;DHT22;8350;52.316;10.530;2022-08-11T07:10:34;23.10;99.90
16479;DHT22;8350;52.316;10.530;2022-08-11T07:13:26;23.30;99.90
16479;DHT22;8350;52.316;10.530;2022-08-11T07:16:14;23.40;99.90
16479;DHT22;8350;52.316;10.530;2022-08-11T07:18:45;23.50;99.90
16479;DHT22;8350;52.316;10.530;2022-08-11T07:21:33;23.60;99.90
16479;DHT22;8350;52.316;10.530;2022-08-11T07:24:19;23.80;99.90
16479;DHT22;8350;52.316;10.530;2022-08-11T07:27:07;24.00;99.90
16479;DHT22;8350;52.316;10.530;2022-08-11T07:29:54;24.20;99.90
16479;DHT22;8350;52.316;10.530;2022-08-11T07:32:25;24.30;99.90
16479;DHT22;8350;52.316;10.530;2022-08-11T07:35:01;24.30;99.90
16479;DHT22;8350;52.316;10.530;2022-08-11T07:37:33;24.60;99.90
16479;DHT22;8350;52.316;10.530;2022-08-11T07:40:02;24.70;99.90
16479;DHT22;8350;52.316;10.530;2022-08-11T07:42:32;24.80;99.90
16479;DHT22;8350;52.316;10.530;2022-08-11T07:45:04;25.00;99.90
16479;DHT22;8350;52.316;10.530;2022-08-11T07:48:04;25.20;99.90
16479;DHT22;8350;52.316;10.530;2022-08-11T07:50:54;25.30;99.90
16479;DHT22;8350;52.316;10.530;2022-08-11T07:53:39;25.50;99.90
16479;DHT22;8350;52.316;10.530;2022-08-11T07:56:06;25.40;99.90
16479;DHT22;8350;52.316;10.530;2022-08-11T07:58:35;25.50;99.90
16479;DHT22;8350;52.316;10.530;2022-08-11T08:01:21;25.80;99.90
16479;DHT22;8350;52.316;10.530;2022-08-11T08:04:08;26.00;99.90
16479;DHT22;8350;52.316;10.530;2022-08-11T08:06:55;26.10;99.90
16479;DHT22;8350;52.316;10.530;2022-08-11T08:09:40;26.20;99.90
16479;DHT22;8350;52.316;10.530;2022-08-11T08:12:25;26.70;99.90
16479;DHT22;8350;52.316;10.530;2022-08-11T08:15:12;27.10;99.90
16479;DHT22;8350;52.316;10.530;2022-08-11T08:17:58;27.00;99.90
16479;DHT22;8350;52.316;10.530;2022-08-11T08:20:33;27.00;99.90
16479;DHT22;8350;52.316;10.530;2022-08-11T08:23:02;27.00;99.90
16479;DHT22;8350;52.316;10.530;2022-08-11T08:25:31;27.20;99.90
16479;DHT22;8350;52.316;10.530;2022-08-11T08:28:00;27.30;99.90
16479;DHT22;8350;52.316;10.530;2022-08-11T08:30:43;27.40;99.90
16479;DHT22;8350;52.316;10.530;2022-08-11T08:33:13;27.10;99.90
16479;DHT22;8350;52.316;10.530;2022-08-11T08:35:42;27.10;99.90
16479;DHT22;8350;52.316;10.530;2022-08-11T08:38:12;27.20;99.90
16479;DHT22;8350;52.316;10.530;2022-08-11T08:40:42;27.50;99.90
16479;DHT22;8350;52.316;10.530;2022-08-11T08:43:12;27.40;99.90
16479;DHT22;8350;52.316;10.530;2022-08-11T08:45:43;27.40;99.90
16479;DHT22;8350;52.316;10.530;2022-08-11T08:48:14;27.40;99.90
16479;DHT22;8350;52.316;10.530;2022-08-11T08:50:49;27.60;99.90
16479;DHT22;8350;52.316;10.530;2022-08-11T08:53:38;27.90;99.90
16479;DHT22;8350;52.316;10.530;2022-08-11T08:56:06;28.10;99.90
16479;DHT22;8350;52.316;10.530;2022-08-11T08:58:42;28.10;99.90
16479;DHT22;8350;52.316;10.530;2022-08-11T09:01:13;28.30;99.90
16479;DHT22;8350;52.316;10.530;2022-08-11T09:03:41;28.60;99.90
16479;DHT22;8350;52.316;10.530;2022-08-11T09:06:08;28.80;99.90
16479;DHT22;8350;52.316;10.530;2022-08-11T09:08:37;28.50;99.90
16479;DHT22;8350;52.316;10.530;2022-08-11T09:11:05;28.30;99.90
16479;DHT22;8350;52.316;10.530;2022-08-11T09:13:51;28.20;99.90
16479;DHT22;8350;52.316;10.530;2022-08-11T09:16:18;28.30;99.90
16479;DHT22;8350;52.316;10.530;2022-08-11T09:18:47;28.60;99.90
16479;DHT22;8350;52.316;10.530;2022-08-11T09:21:15;28.60;99.90
16479;DHT22;8350;52.316;10.530;2022-08-11T09:23:51;28.80;99.90
16479;DHT22;8350;52.316;10.530;2022-08-11T09:26:36;29.00;99.90
16479;DHT22;8350;52.316;10.530;2022-08-11T09:29:26;28.90;99.90
16479;DHT22;8350;52.316;10.530;2022-08-11T09:31:53;28.90;99.90
16479;DHT22;8350;52.316;10.530;2022-08-11T09:34:21;29.20;99.90
16479;DHT22;8350;52.316;10.530;2022-08-11T09:36:49;29.30;99.90
16479;DHT22;8350;52.316;10.530;2022-08-11T09:39:37;29.10;99.90
16479;DHT22;8350;52.316;10.530;2022-08-11T09:42:22;29.40;99.90
16479;DHT22;8350;52.316;10.530;2022-08-11T09:45:10;29.20;99.90
16479;DHT22;8350;52.316;10.530;2022-08-11T09:47:37;28.70;99.90
16479;DHT22;8350;52.316;10.530;2022-08-11T09:50:05;28.80;99.90
16479;DHT22;8350;52.316;10.530;2022-08-11T09:52:36;28.80;99.90
16479;DHT22;8350;52.316;10.530;2022-08-11T09:55:06;28.90;99.90
16479;DHT22;8350;52.316;10.530;2022-08-11T09:57:38;28.90;99.90
16479;DHT22;8350;52.316;10.530;2022-08-11T10:00:31;29.20;99.90
16479;DHT22;8350;52.316;10.530;2022-08-11T10:03:02;29.50;99.90
16479;DHT22;8350;52.316;10.530;2022-08-11T10:05:32;29.70;99.90
16479;DHT22;8350;52.316;10.530;2022-08-11T10:08:18;29.80;99.90
16479;DHT22;8350;52.316;10.530;2022-08-11T10:10:48;29.40;99.90
16479;DHT22;8350;52.316;10.530;2022-08-11T10:13:17;29.50;99.90
16479;DHT22;8350;52.316;10.530;2022-08-11T10:16:02;29.50;99.90
16479;DHT22;8350;52.316;10.530;2022-08-11T10:18:34;29.90;99.90
16479;DHT22;8350;52.316;10.530;2022-08-11T10:21:25;30.20;99.30
16479;DHT22;8350;52.316;10.530;2022-08-11T10:24:00;30.30;96.40
16479;DHT22;8350;52.316;10.530;2022-08-11T10:27:00;30.50;97.00
16479;DHT22;8350;52.316;10.530;2022-08-11T10:29:31;30.90;97.00
16479;DHT22;8350;52.316;10.530;2022-08-11T10:32:19;31.20;95.00
16479;DHT22;8350;52.316;10.530;2022-08-11T10:35:05;31.50;96.60
16479;DHT22;8350;52.316;10.530;2022-08-11T10:37:35;31.60;94.40
16479;DHT22;8350;52.316;10.530;2022-08-11T10:40:06;31.40;94.50
16479;DHT22;8350;52.316;10.530;2022-08-11T10:42:37;31.00;93.90
16479;DHT22;8350;52.316;10.530;2022-08-11T10:45:23;30.90;95.30
16479;DHT22;8350;52.316;10.530;2022-08-11T10:48:08;30.70;96.00
16479;DHT22;8350;52.316;10.530;2022-08-11T10:50:35;30.60;95.50
16479;DHT22;8350;52.316;10.530;2022-08-11T10:53:27;30.90;92.90
16479;DHT22;8350;52.316;10.530;2022-08-11T10:56:11;30.80;92.60
16479;DHT22;8350;52.316;10.530;2022-08-11T10:58:57;30.70;93.10
16479;DHT22;8350;52.316;10.530;2022-08-11T11:01:28;30.80;93.30
16479;DHT22;8350;52.316;10.530;2022-08-11T11:03:59;30.30;91.90
16479;DHT22;8350;52.316;10.530;2022-08-11T11:06:31;30.20;96.10
16479;DHT22;8350;52.316;10.530;2022-08-11T11:09:03;30.20;93.90
16479;DHT22;8350;52.316;10.530;2022-08-11T11:11:36;30.20;94.20
16479;DHT22;8350;52.316;10.530;2022-08-11T11:14:30;30.10;94.40
16479;DHT22;8350;52.316;10.530;2022-08-11T11:17:21;30.20;92.60
16479;DHT22;8350;52.316;10.530;2022-08-11T11:20:07;30.60;94.10
16479;DHT22;8350;52.316;10.530;2022-08-11T11:22:36;30.70;94.10
16479;DHT22;8350;52.316;10.530;2022-08-11T11:25:09;30.40;92.70
16479;DHT22;8350;52.316;10.530;2022-08-11T11:28:09;30.10;93.00
16479;DHT22;8350;52.316;10.530;2022-08-11T11:30:47;30.00;93.40
16479;DHT22;8350;52.316;10.530;2022-08-11T11:33:26;30.10;92.90
16479;DHT22;8350;52.316;10.530;2022-08-11T11:36:08;30.20;93.50
16479;DHT22;8350;52.316;10.530;2022-08-11T11:38:37;30.10;92.90
16479;DHT22;8350;52.316;10.530;2022-08-11T11:41:06;30.00;93.70
16479;DHT22;8350;52.316;10.530;2022-08-11T11:43:53;30.40;94.60
16479;DHT22;8350;52.316;10.530;2022-08-11T11:46:25;31.00;91.80
16479;DHT22;8350;52.316;10.530;2022-08-11T11:48:53;31.40;90.40
16479;DHT22;8350;52.316;10.530;2022-08-11T11:51:20;31.80;88.80
16479;DHT22;8350;52.316;10.530;2022-08-11T11:53:49;31.90;87.90
16479;DHT22;8350;52.316;10.530;2022-08-11T11:56:17;31.80;87.70
16479;DHT22;8350;52.316;10.530;2022-08-11T11:58:46;31.50;86.60
16479;DHT22;8350;52.316;10.530;2022-08-11T12:01:32;31.30;86.30
16479;DHT22;8350;52.316;10.530;2022-08-11T12:04:00;31.00;86.90
16479;DHT22;8350;52.316;10.530;2022-08-11T12:06:31;31.00;90.80
16479;DHT22;8350;52.316;10.530;2022-08-11T12:09:11;31.20;88.70
16479;DHT22;8350;52.316;10.530;2022-08-11T12:11:45;31.20;87.50
16479;DHT22;8350;52.316;10.530;2022-08-11T12:14:29;31.30;87.00
16479;DHT22;8350;52.316;10.530;2022-08-11T12:16:58;31.60;87.80
16479;DHT22;8350;52.316;10.530;2022-08-11T12:19:26;31.60;85.60
16479;DHT22;8350;52.316;10.530;2022-08-11T12:21:55;31.80;84.60
16479;DHT22;8350;52.316;10.530;2022-08-11T12:24:40;31.50;83.30
16479;DHT22;8350;52.316;10.530;2022-08-11T12:27:26;31.30;87.50
16479;DHT22;8350;52.316;10.530;2022-08-11T12:29:55;31.20;85.20
16479;DHT22;8350;52.316;10.530;2022-08-11T12:32:25;31.20;86.90
16479;DHT22;8350;52.316;10.530;2022-08-11T12:34:53;31.20;87.10
16479;DHT22;8350;52.316;10.530;2022-08-11T12:37:25;31.40;84.20
16479;DHT22;8350;52.316;10.530;2022-08-11T12:40:00;31.20;83.30
16479;DHT22;8350;52.316;10.530;2022-08-11T12:42:47;31.30;82.40
16479;DHT22;8350;52.316;10.530;2022-08-11T12:45:33;31.20;81.00
16479;DHT22;8350;52.316;10.530;2022-08-11T12:48:17;31.00;81.10
16479;DHT22;8350;52.316;10.530;2022-08-11T12:51:04;31.10;82.50
16479;DHT22;8350;52.316;10.530;2022-08-11T12:53:58;31.30;85.00
16479;DHT22;8350;52.316;10.530;2022-08-11T12:56:28;31.60;80.60
16479;DHT22;8350;52.316;10.530;2022-08-11T12:59:15;31.80;84.90
16479;DHT22;8350;52.316;10.530;2022-08-11T13:02:01;31.90;80.20
16479;DHT22;8350;52.316;10.530;2022-08-11T13:04:47;31.90;79.70
16479;DHT22;8350;52.316;10.530;2022-08-11T13:07:22;32.10;83.30
16479;DHT22;8350;52.316;10.530;2022-08-11T13:09:50;32.00;80.40
16479;DHT22;8350;52.316;10.530;2022-08-11T13:12:17;31.90;80.00
16479;DHT22;8350;52.316;10.530;2022-08-11T13:15:03;31.90;78.80
16479;DHT22;8350;52.316;10.530;2022-08-11T13:17:30;31.70;78.10
16479;DHT22;8350;52.316;10.530;2022-08-11T13:20:00;31.70;81.00
16479;DHT22;8350;52.316;10.530;2022-08-11T13:22:28;31.60;82.40
16479;DHT22;8350;52.316;10.530;2022-08-11T13:24:56;31.60;80.20
16479;DHT22;8350;52.316;10.530;2022-08-11T13:27:24;31.50;77.00
16479;DHT22;8350;52.316;10.530;2022-08-11T13:29:51;31.40;77.20
16479;DHT22;8350;52.316;10.530;2022-08-11T13:32:41;31.30;80.00
16479;DHT22;8350;52.316;10.530;2022-08-11T13:35:11;31.50;77.00
16479;DHT22;8350;52.316;10.530;2022-08-11T13:37:40;31.60;76.20
16479;DHT22;8350;52.316;10.530;2022-08-11T13:40:08;31.70;80.00
16479;DHT22;8350;52.316;10.530;2022-08-11T13:42:37;31.60;76.60
16479;DHT22;8350;52.316;10.530;2022-08-11T13:45:06;31.70;77.00
16479;DHT22;8350;52.316;10.530;2022-08-11T13:47:34;31.80;78.40
16479;DHT22;8350;52.316;10.530;2022-08-11T13:50:04;31.80;76.40
16479;DHT22;8350;52.316;10.530;2022-08-11T13:52:35;31.80;76.00
16479;DHT22;8350;52.316;10.530;2022-08-11T13:55:06;31.80;77.80
16479;DHT22;8350;52.316;10.530;2022-08-11T13:57:34;31.70;79.00
16479;DHT22;8350;52.316;10.530;2022-08-11T14:00:04;31.80;76.60
16479;DHT22;8350;52.316;10.530;2022-08-11T14:02:41;31.90;77.90
16479;DHT22;8350;52.316;10.530;2022-08-11T14:05:12;31.80;76.80
16479;DHT22;8350;52.316;10.530;2022-08-11T14:07:46;31.60;78.30
16479;DHT22;8350;52.316;10.530;2022-08-11T14:10:15;31.60;78.00
16479;DHT22;8350;52.316;10.530;2022-08-11T14:12:49;31.60;74.80
16479;DHT22;8350;52.316;10.530;2022-08-11T14:15:34;31.60;78.20
16479;DHT22;8350;52.316;10.530;2022-08-11T14:18:04;31.50;76.40
16479;DHT22;8350;52.316;10.530;2022-08-11T14:20:33;31.50;76.00
16479;DHT22;8350;52.316;10.530;2022-08-11T14:23:17;31.40;75.20
16479;DHT22;8350;52.316;10.530;2022-08-11T14:25:48;31.20;75.60
16479;DHT22;8350;52.316;10.530;2022-08-11T14:28:33;31.20;78.00
16479;DHT22;8350;52.316;10.530;2022-08-11T14:31:00;31.40;76.00
16479;DHT22;8350;52.316;10.530;2022-08-11T14:33:31;31.60;75.70
16479;DHT22;8350;52.316;10.530;2022-08-11T14:36:00;31.60;78.00
16479;DHT22;8350;52.316;10.530;2022-08-11T14:38:42;31.70;76.40
16479;DHT22;8350;52.316;10.530;2022-08-11T14:41:10;31.60;76.00
16479;DHT22;8350;52.316;10.530;2022-08-11T14:43:56;31.50;75.70
16479;DHT22;8350;52.316;10.530;2022-08-11T14:46:41;31.30;76.70
16479;DHT22;8350;52.316;10.530;2022-08-11T14:49:27;31.00;76.80
16479;DHT22;8350;52.316;10.530;2022-08-11T14:52:02;30.70;76.10
16479;DHT22;8350;52.316;10.530;2022-08-11T14:54:31;30.70;75.00
16479;DHT22;8350;52.316;10.530;2022-08-11T14:57:17;30.80;75.50
16479;DHT22;8350;52.316;10.530;2022-08-11T14:59:45;31.00;74.90
16479;DHT22;8350;52.316;10.530;2022-08-11T15:02:14;31.30;74.70
16479;DHT22;8350;52.316;10.530;2022-08-11T15:05:00;31.50;74.50
16479;DHT22;8350;52.316;10.530;2022-08-11T15:07:28;31.50;76.50
16479;DHT22;8350;52.316;10.530;2022-08-11T15:10:00;31.40;77.30
16479;DHT22;8350;52.316;10.530;2022-08-11T15:12:28;31.20;76.20
16479;DHT22;8350;52.316;10.530;2022-08-11T15:14:57;31.00;76.00
16479;DHT22;8350;52.316;10.530;2022-08-11T15:17:42;31.10;75.90
16479;DHT22;8350;52.316;10.530;2022-08-11T15:20:13;31.30;78.50
16479;DHT22;8350;52.316;10.530;2022-08-11T15:22:58;31.30;77.50
16479;DHT22;8350;52.316;10.530;2022-08-11T15:25:47;31.30;76.40
16479;DHT22;8350;52.316;10.530;2022-08-11T15:28:45;31.30;76.90
16479;DHT22;8350;52.316;10.530;2022-08-11T15:31:30;30.90;76.40
16479;DHT22;8350;52.316;10.530;2022-08-11T15:34:17;30.90;75.70
16479;DHT22;8350;52.316;10.530;2022-08-11T15:37:06;30.50;76.80
16479;DHT22;8350;52.316;10.530;2022-08-11T15:39:54;30.30;79.10
16479;DHT22;8350;52.316;10.530;2022-08-11T15:42:46;30.30;77.80
16479;DHT22;8350;52.316;10.530;2022-08-11T15:45:32;30.30;76.80
16479;DHT22;8350;52.316;10.530;2022-08-11T15:48:21;30.30;77.90
16479;DHT22;8350;52.316;10.530;2022-08-11T15:50:53;30.40;79.90
16479;DHT22;8350;52.316;10.530;2022-08-11T15:53:26;30.60;78.00
16479;DHT22;8350;52.316;10.530;2022-08-11T15:55:54;30.60;77.50
16479;DHT22;8350;52.316;10.530;2022-08-11T15:58:25;30.60;76.30
16479;DHT22;8350;52.316;10.530;2022-08-11T16:01:13;30.50;77.00
16479;DHT22;8350;52.316;10.530;2022-08-11T16:04:01;30.50;77.70
16479;DHT22;8350;52.316;10.530;2022-08-11T16:06:50;30.50;77.80
16479;DHT22;8350;52.316;10.530;2022-08-11T16:09:27;30.50;77.50
16479;DHT22;8350;52.316;10.530;2022-08-11T16:11:59;30.40;77.40
16479;DHT22;8350;52.316;10.530;2022-08-11T16:14:31;30.20;76.40
16479;DHT22;8350;52.316;10.530;2022-08-11T16:17:17;30.10;75.20
16479;DHT22;8350;52.316;10.530;2022-08-11T16:19:47;30.00;76.00
16479;DHT22;8350;52.316;10.530;2022-08-11T16:22:21;30.00;77.20
16479;DHT22;8350;52.316;10.530;2022-08-11T16:25:02;30.10;75.60
16479;DHT22;8350;52.316;10.530;2022-08-11T16:27:31;30.10;75.90
16479;DHT22;8350;52.316;10.530;2022-08-11T16:30:09;30.00;75.10
16479;DHT22;8350;52.316;10.530;2022-08-11T16:32:40;30.10;75.50
16479;DHT22;8350;52.316;10.530;2022-08-11T16:35:10;30.10;76.00
16479;DHT22;8350;52.316;10.530;2022-08-11T16:37:56;30.20;75.70
16479;DHT22;8350;52.316;10.530;2022-08-11T16:40:43;30.10;75.90
16479;DHT22;8350;52.316;10.530;2022-08-11T16:43:13;30.00;78.00
16479;DHT22;8350;52.316;10.530;2022-08-11T16:46:01;29.90;74.80
16479;DHT22;8350;52.316;10.530;2022-08-11T16:48:59;29.70;76.70
16479;DHT22;8350;52.316;10.530;2022-08-11T16:51:27;29.60;75.90
16479;DHT22;8350;52.316;10.530;2022-08-11T16:53:54;29.60;77.30
16479;DHT22;8350;52.316;10.530;2022-08-11T16:56:26;29.60;76.90
16479;DHT22;8350;52.316;10.530;2022-08-11T16:59:05;29.60;77.40
16479;DHT22;8350;52.316;10.530;2022-08-11T17:01:45;29.60;76.80
16479;DHT22;8350;52.316;10.530;2022-08-11T17:04:18;29.50;77.00
16479;DHT22;8350;52.316;10.530;2022-08-11T17:07:04;29.50;77.10
16479;DHT22;8350;52.316;10.530;2022-08-11T17:09:46;29.50;76.40
16479;DHT22;8350;52.316;10.530;2022-08-11T17:12:33;29.40;75.60
16479;DHT22;8350;52.316;10.530;2022-08-11T17:15:21;29.40;75.80